CheckWX is a tool to help pilots better visualize weather data.  It is not intended as a substitute for an official pre-flight weather briefing.

18:17:18 UTC

KVNY METAR
Van Nuys Airport
Van Nuys, California, USA
Current

26 mins ago

KVNY 281751Z 17004KT 10SM CLR 26/14 A2994 RMK AO2 SLP130 T02560144 10256 20167 55002
Observed
May-28 @ 17:51 UTC
Wind
  • 170° at 4 KTS
Visibility
Flight Rules
VFR
Cloud Levels
  • Clear skies
Temperature
26°C / 79°F
Dewpoint
14°C / 57°F
Humidity
48%
Altimeter
29.94" Hg
Pressure
1013.92 hPa
Previous

1 hour ago

KVNY 281651Z 18005KT 8SM CLR 23/14 A2994 RMK AO2 SLP129 T02280144
Observed
May-28 @ 16:51 UTC
Wind
  • 180° at 5 KTS
Visibility
Flight Rules
VFR
Cloud Levels
  • Clear skies
Temperature
23°C / 73°F
Dewpoint
14°C / 57°F
Humidity
57%
Altimeter
29.94" Hg
Pressure
1013.92 hPa
Previous

2 hours ago

KVNY 281551Z 00000KT 3SM HZ CLR 20/14 A2994 RMK AO2 SLP131 T02000144
Observed
May-28 @ 15:51 UTC
Visibility
Flight Rules
MVFR
Conditions
Haze
Cloud Levels
  • Clear skies
Temperature
20°C / 68°F
Dewpoint
14°C / 57°F
Humidity
69%
Altimeter
29.94" Hg
Pressure
1013.92 hPa